sensor_id;sensor_type;location;lat;lon;timestamp;P1;durP1;ratioP1;P2;durP2;ratioP2
16760;SDS011;8498;52.516;13.790;2023-02-15T00:01:26;40.13;;;14.87;;
16760;SDS011;8498;52.516;13.790;2023-02-15T00:06:49;44.10;;;15.50;;
16760;SDS011;8498;52.516;13.790;2023-02-15T00:12:12;41.77;;;14.97;;
16760;SDS011;8498;52.516;13.790;2023-02-15T00:17:35;45.63;;;14.87;;
16760;SDS011;8498;52.516;13.790;2023-02-15T00:22:58;50.87;;;14.53;;
16760;SDS011;8498;52.516;13.790;2023-02-15T00:28:20;47.10;;;15.97;;
16760;SDS011;8498;52.516;13.790;2023-02-15T00:33:44;46.53;;;15.07;;
16760;SDS011;8498;52.516;13.790;2023-02-15T00:39:07;55.53;;;16.57;;
16760;SDS011;8498;52.516;13.790;2023-02-15T00:44:30;39.90;;;13.80;;
16760;SDS011;8498;52.516;13.790;2023-02-15T00:49:52;54.80;;;16.70;;
16760;SDS011;8498;52.516;13.790;2023-02-15T00:55:14;51.90;;;15.70;;
16760;SDS011;8498;52.516;13.790;2023-02-15T01:00:37;46.33;;;14.77;;
16760;SDS011;8498;52.516;13.790;2023-02-15T01:06:01;51.83;;;15.67;;
16760;SDS011;8498;52.516;13.790;2023-02-15T01:11:25;51.67;;;15.73;;
16760;SDS011;8498;52.516;13.790;2023-02-15T01:16:52;47.53;;;14.90;;
16760;SDS011;8498;52.516;13.790;2023-02-15T01:22:14;52.07;;;15.83;;
16760;SDS011;8498;52.516;13.790;2023-02-15T01:27:36;53.43;;;16.33;;
16760;SDS011;8498;52.516;13.790;2023-02-15T01:33:00;52.27;;;15.57;;
16760;SDS011;8498;52.516;13.790;2023-02-15T01:38:25;50.20;;;15.80;;
16760;SDS011;8498;52.516;13.790;2023-02-15T01:43:57;49.10;;;15.17;;
16760;SDS011;8498;52.516;13.790;2023-02-15T01:49:21;53.03;;;15.43;;
16760;SDS011;8498;52.516;13.790;2023-02-15T01:54:48;48.53;;;15.73;;
16760;SDS011;8498;52.516;13.790;2023-02-15T02:00:11;48.83;;;15.63;;
16760;SDS011;8498;52.516;13.790;2023-02-15T02:05:35;52.10;;;15.47;;
16760;SDS011;8498;52.516;13.790;2023-02-15T02:10:58;49.57;;;14.67;;
16760;SDS011;8498;52.516;13.790;2023-02-15T02:16:40;51.27;;;15.93;;
16760;SDS011;8498;52.516;13.790;2023-02-15T02:22:44;52.13;;;16.27;;
16760;SDS011;8498;52.516;13.790;2023-02-15T02:40:07;51.47;;;16.50;;
16760;SDS011;8498;52.516;13.790;2023-02-15T02:45:36;45.90;;;15.70;;
16760;SDS011;8498;52.516;13.790;2023-02-15T02:51:02;57.27;;;16.53;;
16760;SDS011;8498;52.516;13.790;2023-02-15T02:56:29;53.60;;;14.70;;
16760;SDS011;8498;52.516;13.790;2023-02-15T03:02:16;49.57;;;17.00;;
16760;SDS011;8498;52.516;13.790;2023-02-15T03:07:45;63.67;;;17.37;;
16760;SDS011;8498;52.516;13.790;2023-02-15T03:13:12;58.97;;;16.50;;
16760;SDS011;8498;52.516;13.790;2023-02-15T03:18:40;56.53;;;17.93;;
16760;SDS011;8498;52.516;13.790;2023-02-15T03:24:17;49.70;;;17.13;;
16760;SDS011;8498;52.516;13.790;2023-02-15T03:29:49;53.93;;;17.10;;
16760;SDS011;8498;52.516;13.790;2023-02-15T03:35:15;56.93;;;17.87;;
16760;SDS011;8498;52.516;13.790;2023-02-15T03:40:38;61.00;;;18.70;;
16760;SDS011;8498;52.516;13.790;2023-02-15T03:46:29;59.47;;;17.60;;
16760;SDS011;8498;52.516;13.790;2023-02-15T03:51:55;60.67;;;17.57;;
16760;SDS011;8498;52.516;13.790;2023-02-15T03:57:22;64.13;;;18.50;;
16760;SDS011;8498;52.516;13.790;2023-02-15T04:08:43;62.63;;;17.97;;
16760;SDS011;8498;52.516;13.790;2023-02-15T04:14:24;61.43;;;17.33;;
16760;SDS011;8498;52.516;13.790;2023-02-15T04:20:07;59.17;;;16.90;;
16760;SDS011;8498;52.516;13.790;2023-02-15T04:25:49;61.20;;;19.73;;
16760;SDS011;8498;52.516;13.790;2023-02-15T04:31:11;61.10;;;18.50;;
16760;SDS011;8498;52.516;13.790;2023-02-15T04:36:34;68.23;;;19.50;;
16760;SDS011;8498;52.516;13.790;2023-02-15T04:41:57;65.67;;;18.33;;
16760;SDS011;8498;52.516;13.790;2023-02-15T04:47:19;54.73;;;17.20;;
16760;SDS011;8498;52.516;13.790;2023-02-15T04:52:42;58.83;;;18.27;;
16760;SDS011;8498;52.516;13.790;2023-02-15T04:58:04;53.83;;;17.23;;
16760;SDS011;8498;52.516;13.790;2023-02-15T05:03:27;61.80;;;17.83;;
16760;SDS011;8498;52.516;13.790;2023-02-15T05:08:49;54.23;;;17.17;;
16760;SDS011;8498;52.516;13.790;2023-02-15T05:14:11;55.23;;;16.63;;
16760;SDS011;8498;52.516;13.790;2023-02-15T05:19:34;54.33;;;17.47;;
16760;SDS011;8498;52.516;13.790;2023-02-15T05:24:56;55.77;;;16.80;;
16760;SDS011;8498;52.516;13.790;2023-02-15T05:30:37;57.77;;;17.37;;
16760;SDS011;8498;52.516;13.790;2023-02-15T05:36:02;59.07;;;17.80;;
16760;SDS011;8498;52.516;13.790;2023-02-15T05:41:26;63.40;;;18.23;;
16760;SDS011;8498;52.516;13.790;2023-02-15T05:46:48;58.20;;;18.70;;
16760;SDS011;8498;52.516;13.790;2023-02-15T05:52:10;65.50;;;18.40;;
16760;SDS011;8498;52.516;13.790;2023-02-15T05:57:34;63.93;;;19.07;;
16760;SDS011;8498;52.516;13.790;2023-02-15T06:02:58;58.17;;;18.50;;
16760;SDS011;8498;52.516;13.790;2023-02-15T06:08:20;61.10;;;18.43;;
16760;SDS011;8498;52.516;13.790;2023-02-15T06:13:43;65.37;;;20.97;;
16760;SDS011;8498;52.516;13.790;2023-02-15T06:19:05;64.13;;;18.57;;
16760;SDS011;8498;52.516;13.790;2023-02-15T06:24:28;58.87;;;17.53;;
16760;SDS011;8498;52.516;13.790;2023-02-15T06:29:50;66.20;;;18.43;;
16760;SDS011;8498;52.516;13.790;2023-02-15T06:35:13;69.93;;;18.50;;
16760;SDS011;8498;52.516;13.790;2023-02-15T06:40:37;63.17;;;19.23;;
16760;SDS011;8498;52.516;13.790;2023-02-15T06:46:00;62.53;;;19.13;;
16760;SDS011;8498;52.516;13.790;2023-02-15T06:51:23;59.23;;;18.87;;
16760;SDS011;8498;52.516;13.790;2023-02-15T06:56:45;67.60;;;19.40;;
16760;SDS011;8498;52.516;13.790;2023-02-15T07:02:09;62.50;;;19.23;;
16760;SDS011;8498;52.516;13.790;2023-02-15T07:07:33;66.70;;;19.20;;
16760;SDS011;8498;52.516;13.790;2023-02-15T07:12:56;51.40;;;18.10;;
16760;SDS011;8498;52.516;13.790;2023-02-15T07:18:18;59.07;;;18.77;;
16760;SDS011;8498;52.516;13.790;2023-02-15T07:23:41;64.37;;;19.60;;
16760;SDS011;8498;52.516;13.790;2023-02-15T07:29:03;61.97;;;17.67;;
16760;SDS011;8498;52.516;13.790;2023-02-15T07:34:26;66.80;;;20.73;;
16760;SDS011;8498;52.516;13.790;2023-02-15T07:39:48;60.17;;;18.60;;
16760;SDS011;8498;52.516;13.790;2023-02-15T07:45:11;59.17;;;17.87;;
16760;SDS011;8498;52.516;13.790;2023-02-15T07:50:33;72.53;;;18.90;;
16760;SDS011;8498;52.516;13.790;2023-02-15T07:56:00;63.80;;;18.27;;
16760;SDS011;8498;52.516;13.790;2023-02-15T08:01:28;58.37;;;15.70;;
16760;SDS011;8498;52.516;13.790;2023-02-15T08:06:53;66.03;;;18.17;;
16760;SDS011;8498;52.516;13.790;2023-02-15T08:12:16;54.67;;;16.03;;
16760;SDS011;8498;52.516;13.790;2023-02-15T08:17:38;62.23;;;18.00;;
16760;SDS011;8498;52.516;13.790;2023-02-15T08:23:02;56.93;;;17.03;;
16760;SDS011;8498;52.516;13.790;2023-02-15T08:28:24;62.67;;;17.60;;
16760;SDS011;8498;52.516;13.790;2023-02-15T08:33:47;68.40;;;17.90;;
16760;SDS011;8498;52.516;13.790;2023-02-15T08:39:11;55.07;;;17.93;;
16760;SDS011;8498;52.516;13.790;2023-02-15T08:44:35;63.40;;;18.43;;
16760;SDS011;8498;52.516;13.790;2023-02-15T08:49:57;68.23;;;17.70;;
16760;SDS011;8498;52.516;13.790;2023-02-15T08:55:20;77.43;;;19.33;;
16760;SDS011;8498;52.516;13.790;2023-02-15T09:00:43;66.43;;;18.13;;
16760;SDS011;8498;52.516;13.790;2023-02-15T09:06:08;56.50;;;15.67;;
16760;SDS011;8498;52.516;13.790;2023-02-15T09:11:33;65.47;;;19.17;;
16760;SDS011;8498;52.516;13.790;2023-02-15T09:16:58;75.20;;;18.87;;
16760;SDS011;8498;52.516;13.790;2023-02-15T09:22:20;64.73;;;18.40;;
16760;SDS011;8498;52.516;13.790;2023-02-15T09:27:43;57.53;;;16.87;;
16760;SDS011;8498;52.516;13.790;2023-02-15T09:33:05;57.80;;;17.63;;
16760;SDS011;8498;52.516;13.790;2023-02-15T09:38:27;65.83;;;17.27;;
16760;SDS011;8498;52.516;13.790;2023-02-15T09:54:44;66.67;;;18.10;;
16760;SDS011;8498;52.516;13.790;2023-02-15T10:05:39;62.30;;;18.13;;
16760;SDS011;8498;52.516;13.790;2023-02-15T10:11:32;62.27;;;18.67;;
16760;SDS011;8498;52.516;13.790;2023-02-15T10:17:23;64.17;;;18.90;;
16760;SDS011;8498;52.516;13.790;2023-02-15T10:29:02;67.30;;;19.37;;
16760;SDS011;8498;52.516;13.790;2023-02-15T10:51:05;61.10;;;18.13;;
16760;SDS011;8498;52.516;13.790;2023-02-15T10:56:43;63.33;;;17.83;;
16760;SDS011;8498;52.516;13.790;2023-02-15T11:02:20;58.27;;;17.70;;
16760;SDS011;8498;52.516;13.790;2023-02-15T11:08:07;60.23;;;18.60;;
16760;SDS011;8498;52.516;13.790;2023-02-15T11:13:53;64.20;;;19.27;;
16760;SDS011;8498;52.516;13.790;2023-02-15T11:19:19;60.90;;;18.80;;
16760;SDS011;8498;52.516;13.790;2023-02-15T11:24:46;60.13;;;18.77;;
16760;SDS011;8498;52.516;13.790;2023-02-15T11:30:10;60.63;;;19.27;;
16760;SDS011;8498;52.516;13.790;2023-02-15T11:35:37;57.97;;;18.67;;
16760;SDS011;8498;52.516;13.790;2023-02-15T11:41:14;54.37;;;18.30;;
16760;SDS011;8498;52.516;13.790;2023-02-15T11:46:41;59.97;;;18.77;;
16760;SDS011;8498;52.516;13.790;2023-02-15T11:52:07;51.90;;;18.23;;
16760;SDS011;8498;52.516;13.790;2023-02-15T11:57:37;59.73;;;19.13;;
16760;SDS011;8498;52.516;13.790;2023-02-15T12:03:07;46.90;;;16.33;;
16760;SDS011;8498;52.516;13.790;2023-02-15T12:08:40;48.37;;;16.93;;
16760;SDS011;8498;52.516;13.790;2023-02-15T12:14:08;49.97;;;16.93;;
16760;SDS011;8498;52.516;13.790;2023-02-15T12:19:37;49.63;;;16.43;;
16760;SDS011;8498;52.516;13.790;2023-02-15T12:25:25;45.87;;;15.77;;
16760;SDS011;8498;52.516;13.790;2023-02-15T12:30:51;41.57;;;14.73;;
16760;SDS011;8498;52.516;13.790;2023-02-15T12:36:17;39.80;;;14.90;;
16760;SDS011;8498;52.516;13.790;2023-02-15T12:41:58;47.80;;;15.70;;
16760;SDS011;8498;52.516;13.790;2023-02-15T12:47:43;43.30;;;15.73;;
16760;SDS011;8498;52.516;13.790;2023-02-15T12:53:08;40.93;;;14.60;;
16760;SDS011;8498;52.516;13.790;2023-02-15T12:58:41;40.40;;;14.57;;
16760;SDS011;8498;52.516;13.790;2023-02-15T13:04:04;34.43;;;13.60;;
16760;SDS011;8498;52.516;13.790;2023-02-15T13:09:38;34.90;;;13.13;;
16760;SDS011;8498;52.516;13.790;2023-02-15T13:15:01;34.30;;;13.37;;
16760;SDS011;8498;52.516;13.790;2023-02-15T13:20:26;39.83;;;13.70;;
16760;SDS011;8498;52.516;13.790;2023-02-15T13:25:50;33.77;;;12.27;;
16760;SDS011;8498;52.516;13.790;2023-02-15T13:31:14;32.27;;;13.23;;
16760;SDS011;8498;52.516;13.790;2023-02-15T13:42:27;33.47;;;13.20;;
16760;SDS011;8498;52.516;13.790;2023-02-15T14:11:26;31.73;;;13.23;;
16760;SDS011;8498;52.516;13.790;2023-02-15T14:17:05;29.50;;;10.87;;
16760;SDS011;8498;52.516;13.790;2023-02-15T14:28:08;31.43;;;11.13;;
16760;SDS011;8498;52.516;13.790;2023-02-15T14:33:37;24.23;;;10.70;;
16760;SDS011;8498;52.516;13.790;2023-02-15T14:45:25;19.27;;;9.03;;
16760;SDS011;8498;52.516;13.790;2023-02-15T14:50:58;22.13;;;9.73;;
16760;SDS011;8498;52.516;13.790;2023-02-15T14:56:21;22.17;;;9.57;;
16760;SDS011;8498;52.516;13.790;2023-02-15T15:01:52;21.47;;;8.97;;
16760;SDS011;8498;52.516;13.790;2023-02-15T15:07:23;19.13;;;8.17;;
16760;SDS011;8498;52.516;13.790;2023-02-15T15:12:51;18.93;;;8.63;;
16760;SDS011;8498;52.516;13.790;2023-02-15T15:24:06;17.40;;;8.00;;
16760;SDS011;8498;52.516;13.790;2023-02-15T15:29:39;20.40;;;7.60;;
16760;SDS011;8498;52.516;13.790;2023-02-15T15:35:05;14.93;;;7.20;;
16760;SDS011;8498;52.516;13.790;2023-02-15T15:52:16;15.47;;;7.17;;
16760;SDS011;8498;52.516;13.790;2023-02-15T15:57:42;16.47;;;7.80;;
16760;SDS011;8498;52.516;13.790;2023-02-15T16:03:21;14.93;;;7.23;;
16760;SDS011;8498;52.516;13.790;2023-02-15T16:08:43;18.47;;;8.13;;
16760;SDS011;8498;52.516;13.790;2023-02-15T16:14:13;15.63;;;6.93;;
16760;SDS011;8498;52.516;13.790;2023-02-15T16:19:58;17.77;;;7.83;;
16760;SDS011;8498;52.516;13.790;2023-02-15T16:31:19;18.63;;;8.47;;
16760;SDS011;8498;52.516;13.790;2023-02-15T16:36:44;26.50;;;10.93;;
16760;SDS011;8498;52.516;13.790;2023-02-15T16:42:06;35.50;;;14.47;;
16760;SDS011;8498;52.516;13.790;2023-02-15T16:47:30;25.77;;;12.93;;
16760;SDS011;8498;52.516;13.790;2023-02-15T16:52:56;24.83;;;10.97;;
16760;SDS011;8498;52.516;13.790;2023-02-15T16:58:22;23.57;;;10.30;;
16760;SDS011;8498;52.516;13.790;2023-02-15T17:03:51;35.90;;;15.40;;
16760;SDS011;8498;52.516;13.790;2023-02-15T17:09:32;28.20;;;11.47;;
16760;SDS011;8498;52.516;13.790;2023-02-15T17:14:56;21.67;;;9.93;;
16760;SDS011;8498;52.516;13.790;2023-02-15T17:20:18;21.47;;;8.30;;
16760;SDS011;8498;52.516;13.790;2023-02-15T17:25:43;19.67;;;8.07;;
16760;SDS011;8498;52.516;13.790;2023-02-15T17:31:06;23.13;;;8.37;;
16760;SDS011;8498;52.516;13.790;2023-02-15T17:36:31;18.57;;;8.20;;
16760;SDS011;8498;52.516;13.790;2023-02-15T17:41:53;23.33;;;9.80;;
16760;SDS011;8498;52.516;13.790;2023-02-15T17:47:16;25.23;;;10.50;;
16760;SDS011;8498;52.516;13.790;2023-02-15T17:52:41;21.07;;;10.53;;
16760;SDS011;8498;52.516;13.790;2023-02-15T17:58:05;22.90;;;10.07;;
16760;SDS011;8498;52.516;13.790;2023-02-15T18:03:39;21.93;;;9.70;;
16760;SDS011;8498;52.516;13.790;2023-02-15T18:09:27;31.63;;;11.77;;
16760;SDS011;8498;52.516;13.790;2023-02-15T18:15:08;27.27;;;11.50;;
16760;SDS011;8498;52.516;13.790;2023-02-15T18:20:33;28.63;;;11.90;;
16760;SDS011;8498;52.516;13.790;2023-02-15T18:26:00;51.17;;;16.50;;
16760;SDS011;8498;52.516;13.790;2023-02-15T18:31:23;51.47;;;17.47;;
16760;SDS011;8498;52.516;13.790;2023-02-15T18:36:45;46.87;;;15.47;;
16760;SDS011;8498;52.516;13.790;2023-02-15T18:42:16;64.83;;;22.57;;
16760;SDS011;8498;52.516;13.790;2023-02-15T18:47:50;46.23;;;17.80;;
16760;SDS011;8498;52.516;13.790;2023-02-15T18:53:19;51.83;;;18.63;;
16760;SDS011;8498;52.516;13.790;2023-02-15T18:58:42;45.17;;;17.57;;
16760;SDS011;8498;52.516;13.790;2023-02-15T19:04:08;47.87;;;16.40;;
16760;SDS011;8498;52.516;13.790;2023-02-15T19:09:30;40.10;;;15.20;;
16760;SDS011;8498;52.516;13.790;2023-02-15T19:14:54;31.77;;;12.73;;
16760;SDS011;8498;52.516;13.790;2023-02-15T19:20:25;29.73;;;11.60;;
16760;SDS011;8498;52.516;13.790;2023-02-15T19:25:50;27.27;;;10.43;;
16760;SDS011;8498;52.516;13.790;2023-02-15T19:31:15;28.47;;;11.00;;
16760;SDS011;8498;52.516;13.790;2023-02-15T19:36:38;25.23;;;9.57;;
16760;SDS011;8498;52.516;13.790;2023-02-15T19:42:01;26.43;;;10.13;;
16760;SDS011;8498;52.516;13.790;2023-02-15T19:47:24;28.57;;;10.90;;
16760;SDS011;8498;52.516;13.790;2023-02-15T19:52:48;27.60;;;10.47;;
16760;SDS011;8498;52.516;13.790;2023-02-15T19:58:11;27.87;;;9.77;;
16760;SDS011;8498;52.516;13.790;2023-02-15T20:03:34;27.97;;;8.93;;
16760;SDS011;8498;52.516;13.790;2023-02-15T20:08:57;24.47;;;9.50;;
16760;SDS011;8498;52.516;13.790;2023-02-15T20:14:20;23.20;;;9.90;;
16760;SDS011;8498;52.516;13.790;2023-02-15T20:19:43;31.23;;;12.23;;
16760;SDS011;8498;52.516;13.790;2023-02-15T20:25:12;25.07;;;10.03;;
16760;SDS011;8498;52.516;13.790;2023-02-15T20:30:39;25.23;;;9.77;;
16760;SDS011;8498;52.516;13.790;2023-02-15T20:36:02;24.27;;;9.33;;
16760;SDS011;8498;52.516;13.790;2023-02-15T20:41:25;22.40;;;9.53;;
16760;SDS011;8498;52.516;13.790;2023-02-15T20:46:57;20.73;;;9.37;;
16760;SDS011;8498;52.516;13.790;2023-02-15T20:52:21;19.77;;;9.33;;
16760;SDS011;8498;52.516;13.790;2023-02-15T20:57:44;24.50;;;9.53;;
16760;SDS011;8498;52.516;13.790;2023-02-15T21:03:09;18.43;;;8.50;;
16760;SDS011;8498;52.516;13.790;2023-02-15T21:08:34;25.90;;;9.37;;
16760;SDS011;8498;52.516;13.790;2023-02-15T21:13:56;23.87;;;9.47;;
16760;SDS011;8498;52.516;13.790;2023-02-15T21:19:20;25.63;;;10.23;;
16760;SDS011;8498;52.516;13.790;2023-02-15T21:24:47;28.43;;;9.83;;
16760;SDS011;8498;52.516;13.790;2023-02-15T21:30:15;21.70;;;9.43;;
16760;SDS011;8498;52.516;13.790;2023-02-15T21:35:39;28.17;;;10.23;;
16760;SDS011;8498;52.516;13.790;2023-02-15T21:41:01;29.00;;;10.60;;
16760;SDS011;8498;52.516;13.790;2023-02-15T21:46:44;24.27;;;11.33;;
16760;SDS011;8498;52.516;13.790;2023-02-15T21:52:25;25.17;;;11.27;;
16760;SDS011;8498;52.516;13.790;2023-02-15T21:57:47;29.57;;;11.37;;
16760;SDS011;8498;52.516;13.790;2023-02-15T22:03:10;27.83;;;11.23;;
16760;SDS011;8498;52.516;13.790;2023-02-15T22:08:33;33.60;;;12.73;;
16760;SDS011;8498;52.516;13.790;2023-02-15T22:13:56;27.30;;;11.00;;
16760;SDS011;8498;52.516;13.790;2023-02-15T22:19:19;25.23;;;10.27;;
16760;SDS011;8498;52.516;13.790;2023-02-15T22:24:44;21.57;;;9.87;;
16760;SDS011;8498;52.516;13.790;2023-02-15T22:30:50;26.20;;;10.37;;
16760;SDS011;8498;52.516;13.790;2023-02-15T22:35:58;25.97;;;10.23;;
16760;SDS011;8498;52.516;13.790;2023-02-15T22:41:22;27.60;;;10.30;;
16760;SDS011;8498;52.516;13.790;2023-02-15T22:46:47;28.27;;;11.07;;
16760;SDS011;8498;52.516;13.790;2023-02-15T22:52:11;26.17;;;10.63;;
16760;SDS011;8498;52.516;13.790;2023-02-15T22:57:34;23.70;;;10.53;;
16760;SDS011;8498;52.516;13.790;2023-02-15T23:02:57;26.33;;;10.90;;
16760;SDS011;8498;52.516;13.790;2023-02-15T23:08:20;24.57;;;10.53;;
16760;SDS011;8498;52.516;13.790;2023-02-15T23:13:42;23.87;;;9.27;;
16760;SDS011;8498;52.516;13.790;2023-02-15T23:19:04;31.07;;;11.13;;
16760;SDS011;8498;52.516;13.790;2023-02-15T23:24:28;27.80;;;9.17;;
16760;SDS011;8498;52.516;13.790;2023-02-15T23:29:51;28.53;;;10.80;;
16760;SDS011;8498;52.516;13.790;2023-02-15T23:35:14;26.93;;;10.33;;
16760;SDS011;8498;52.516;13.790;2023-02-15T23:40:38;18.97;;;9.63;;
16760;SDS011;8498;52.516;13.790;2023-02-15T23:46:24;23.63;;;10.17;;
16760;SDS011;8498;52.516;13.790;2023-02-15T23:51:54;20.63;;;7.93;;
16760;SDS011;8498;52.516;13.790;2023-02-15T23:57:17;23.30;;;9.97;;
